| time (UTC) | temp C | wind direction | speed KPH | gust KPH | rain 1hr cm | rain 24hr cm | rain mn cm | humidity % | barometer mb |
| 20260903111148 | 25 | 171 | 6.4 | 12.9 | 0.00 | 0.03 | 0.00 | 50 | 1019.1 |
| 20260903110535 | 25 | 155 | 6.4 | 14.5 | 0.00 | 0.03 | 0.00 | 53 | 1019.4 |
| 20260903105535 | 24 | 164 | 6.4 | 11.3 | 0.00 | 0.03 | 0.00 | 56 | 1019.6 |
| 20260903104148 | 24 | 113 | 3.2 | 9.7 | 0.00 | 0.03 | 0.00 | 57 | 1019.7 |
| 20260903103535 | 23 | 147 | 4.8 | 12.9 | 0.00 | 0.03 | 0.00 | 59 | 1020.0 |
| 20260903102535 | 23 | 245 | 1.6 | 8.0 | 0.00 | 0.03 | 0.00 | 63 | 1020.0 |
| 20260903101148 | 22 | 135 | 4.8 | 12.9 | 0.00 | 0.03 | 0.00 | 62 | 1020.4 |
| 20260903100535 | 22 | 139 | 4.8 | 12.9 | 0.00 | 0.03 | 0.00 | 63 | 1020.5 |
| 20260903095535 | 22 | 179 | 4.8 | 14.5 | 0.00 | 0.03 | 0.00 | 65 | 1020.6 |
| 20260903094147 | 22 | 180 | 6.4 | 14.5 | 0.00 | 0.03 | 0.00 | 65 | 1020.9 |
| 20260903093535 | 22 | 202 | 1.6 | 9.7 | 0.00 | 0.03 | 0.00 | 65 | 1021.1 |
| 20260903091148 | 21 | 269 | 6.4 | 12.9 | 0.00 | 0.03 | 0.00 | 66 | 1021.6 |
| 20260903090535 | 20 | 224 | 3.2 | 9.7 | 0.00 | 0.03 | 0.00 | 68 | 1021.7 |
| 20260903085535 | 20 | 268 | 3.2 | 9.7 | 0.00 | 0.03 | 0.00 | 72 | 1021.9 |
| 20260903084147 | 20 | 261 | 4.8 | 12.9 | 0.00 | 0.03 | 0.00 | 73 | 1021.8 |
| 20260903083535 | 19 | 305 | 4.8 | 12.9 | 0.00 | 0.03 | 0.00 | 75 | 1022.0 |
| 20260903082535 | 20 | 262 | 1.6 | 8.0 | 0.00 | 0.03 | 0.00 | 74 | 1022.0 |
| 20260903081148 | 19 | 269 | 1.6 | 9.7 | 0.00 | 0.03 | 0.00 | 76 | 1022.1 |
| 20260903080535 | 19 | 252 | 1.6 | 6.4 | 0.00 | 0.03 | 0.00 | 76 | 1022.2 |
| 20260903075535 | 19 | 251 | 1.6 | 6.4 | 0.00 | 0.03 | 0.00 | 77 | 1022.2 |
| 20260903074148 | 18 | 248 | 1.6 | 9.7 | 0.00 | 0.03 | 0.00 | 80 | 1022.5 |
| 20260903073534 | 17 | 230 | 3.2 | 9.7 | 0.00 | 0.03 | 0.00 | 82 | 1022.5 |
| 20260903072534 | 17 | 245 | 3.2 | 9.7 | 0.00 | 0.03 | 0.00 | 82 | 1022.7 |
| 20260903071148 | 17 | 286 | 4.8 | 9.7 | 0.00 | 0.03 | 0.00 | 82 | 1022.8 |
| 20260903070535 | 17 | 311 | 1.6 | 6.4 | 0.00 | 0.03 | 0.00 | 83 | 1022.7 |
| 20260903065535 | 17 | 294 | 1.6 | 4.8 | 0.00 | 0.03 | 0.00 | 84 | 1022.8 |
| 20260903064147 | 16 | 285 | 1.6 | 6.4 | 0.00 | 0.03 | 0.00 | 86 | 1022.8 |
| 20260903063534 | 16 | 285 | 3.2 | 4.8 | 0.00 | 0.03 | 0.00 | 88 | 1022.9 |
| 20260903062535 | 16 | 291 | 3.2 | 6.4 | 0.00 | 0.03 | 0.00 | 90 | 1022.8 |
| 20260903061148 | 15 | 303 | 3.2 | 4.8 | 0.00 | 0.03 | 0.00 | 92 | 1022.8 |
| 20260903060535 | 15 | 314 | 3.2 | 4.8 | 0.00 | 0.03 | 0.00 | 93 | 1022.9 |
| 20260903055534 | 15 | 323 | 3.2 | 6.4 | 0.00 | 0.03 | 0.00 | 93 | 1022.8 |
| 20260903054147 | 15 | 307 | 4.8 | 6.4 | 0.00 | 0.03 | 0.00 | 93 | 1022.8 |
| 20260903053535 | 15 | 310 | 6.4 | 9.7 | 0.00 | 0.03 | 0.00 | 93 | 1022.8 |
| 20260903052535 | 15 | 314 | 4.8 | 8.0 | 0.00 | 0.03 | 0.00 | 93 | 1022.6 |
| 20260903051148 | 15 | 325 | 4.8 | 6.4 | 0.00 | 0.03 | 0.00 | 93 | 1022.6 |
| 20260903050534 | 15 | 329 | 6.4 | 8.0 | 0.00 | 0.03 | 0.00 | 94 | 1022.6 |
| 20260903045535 | 15 | 307 | 4.8 | 9.7 | 0.00 | 0.03 | 0.00 | 94 | 1022.5 |
| 20260903044147 | 15 | 312 | 8.0 | 12.9 | 0.00 | 0.03 | 0.00 | 94 | 1022.5 |
| 20260903043534 | 15 | 302 | 8.0 | 11.3 | 0.00 | 0.03 | 0.00 | 94 | 1022.4 |
| 20260903042535 | 15 | 291 | 9.7 | 11.3 | 0.00 | 0.03 | 0.00 | 95 | 1022.4 |
| 20260903041147 | 15 | 302 | 6.4 | 11.3 | 0.00 | 0.03 | 0.00 | 94 | 1022.4 |
| 20260903040535 | 15 | 297 | 8.0 | 12.9 | 0.00 | 0.03 | 0.00 | 95 | 1022.2 |
| 20260903035535 | 15 | 315 | 8.0 | 12.9 | 0.00 | 0.03 | 0.00 | 94 | 1022.2 |
| 20260903034534 | 15 | 325 | 8.0 | 11.3 | 0.00 | 0.03 | 0.00 | 94 | 1022.0 |
| 20260903033535 | 15 | 322 | 6.4 | 9.7 | 0.00 | 0.03 | 0.00 | 93 | 1021.8 |
| 20260903032535 | 15 | 329 | 3.2 | 6.4 | 0.00 | 0.03 | 0.00 | 93 | 1021.8 |
| 20260903031148 | 15 | 315 | 4.8 | 9.7 | 0.00 | 0.03 | 0.00 | 93 | 1021.8 |
| 20260903030535 | 15 | 299 | 6.4 | 8.0 | 0.00 | 0.03 | 0.00 | 93 | 1021.9 |
| 20260903025535 | 15 | 317 | 4.8 | 8.0 | 0.00 | 0.03 | 0.00 | 94 | 1021.9 |
| 20260903024535 | 16 | 331 | 4.8 | 6.4 | 0.00 | 0.03 | 0.00 | 93 | 1022.1 |
| 20260903023535 | 16 | 333 | 3.2 | 6.4 | 0.00 | 0.03 | 0.00 | 93 | 1021.8 |
| 20260903022535 | 16 | 336 | 4.8 | 6.4 | 0.00 | 0.03 | 0.00 | 92 | 1022.0 |
| 20260903021147 | 16 | 334 | 3.2 | 4.8 | 0.00 | 0.03 | 0.00 | 92 | 1021.8 |
| 20260903020535 | 16 | 1 | 4.8 | 8.0 | 0.00 | 0.03 | 0.00 | 91 | 1022.0 |
| 20260903015535 | 16 | 338 | 1.6 | 6.4 | 0.00 | 0.03 | 0.00 | 90 | 1021.7 |
| 20260903014147 | 17 | 359 | 3.2 | 4.8 | 0.00 | 0.03 | 0.00 | 89 | 1021.7 |
| 20260903013533 | 17 | 332 | 1.6 | 4.8 | 0.00 | 0.03 | 0.00 | 88 | 1021.6 |
| 20260903012534 | 17 | 330 | 3.2 | 6.4 | 0.00 | 0.03 | 0.00 | 88 | 1021.6 |
| 20260903011148 | 17 | 270 | 4.8 | 11.3 | 0.00 | 0.03 | 0.00 | 88 | 1021.5 |
| 20260903010535 | 17 | 269 | 4.8 | 8.0 | 0.00 | 0.03 | 0.00 | 87 | 1021.6 |
| 20260903005535 | 17 | 230 | 6.4 | 14.5 | 0.00 | 0.03 | 0.00 | 86 | 1021.4 |
| 20260903004148 | 17 | 292 | 3.2 | 11.3 | 0.00 | 0.03 | 0.00 | 86 | 1021.5 |
| 20260903003535 | 17 | 342 | 9.7 | 17.7 | 0.00 | 0.03 | 0.00 | 86 | 1021.5 |
| 20260903002535 | 17 | 341 | 9.7 | 14.5 | 0.00 | 0.03 | 0.00 | 87 | 1021.5 |
| 20260903001547 | 17 | 341 | 9.7 | 17.7 | 0.00 | 0.03 | 0.00 | 87 | 1021.8 |
| 20260903000534 | 17 | 312 | 4.8 | 9.7 | 0.00 | 0.03 | 0.00 | 86 | 1021.4 |
| 20260902235534 | 17 | 209 | 6.4 | 12.9 | 0.00 | 0.03 | 0.00 | 86 | 1021.2 |
| 20260902234148 | 17 | 203 | 9.7 | 19.3 | 0.00 | 0.03 | 0.00 | 85 | 1021.4 |
| 20260902233534 | 17 | 160 | 9.7 | 20.9 | 0.00 | 0.03 | 0.00 | 86 | 1021.4 |
| 20260902232534 | 18 | 15 | 6.4 | 14.5 | 0.00 | 0.03 | 0.00 | 84 | 1021.2 |
| 20260902231535 | 17 | 353 | 6.4 | 12.9 | 0.00 | 0.03 | 0.00 | 85 | 1021.8 |
| 20260902230534 | 17 | 321 | 3.2 | 8.0 | 0.00 | 0.03 | 0.00 | 84 | 1021.5 |
| 20260902225535 | 17 | 354 | 1.6 | 3.2 | 0.00 | 0.03 | 0.00 | 84 | 1021.4 |
| 20260902224148 | 17 | 273 | 3.2 | 6.4 | 0.00 | 0.03 | 0.00 | 86 | 1021.4 |
| 20260902223535 | 17 | 309 | 4.8 | 9.7 | 0.00 | 0.03 | 0.00 | 85 | 1021.6 |
| 20260902222535 | 17 | 337 | 8.0 | 14.5 | 0.00 | 0.03 | 0.00 | 87 | 1021.6 |
| 20260902221148 | 17 | 332 | 8.0 | 14.5 | 0.00 | 0.03 | 0.00 | 86 | 1021.3 |
| 20260902220534 | 17 | 307 | 4.8 | 8.0 | 0.00 | 0.03 | 0.03 | 85 | 1021.1 |
| 20260902215535 | 17 | 346 | 3.2 | 4.8 | 0.00 | 0.03 | 0.03 | 84 | 1020.8 |
| 20260902214148 | 17 | 328 | 4.8 | 8.0 | 0.00 | 0.03 | 0.03 | 84 | 1020.8 |
| 20260902213534 | 17 | 339 | 8.0 | 12.9 | 0.00 | 0.03 | 0.03 | 84 | 1020.7 |
| 20260902211148 | 18 | 329 | 6.4 | 9.7 | 0.00 | 0.03 | 0.03 | 85 | 1020.6 |
| 20260902210535 | 18 | 317 | 4.8 | 9.7 | 0.00 | 0.03 | 0.03 | 86 | 1020.2 |
| 20260902205535 | 18 | 322 | 3.2 | 4.8 | 0.00 | 0.03 | 0.03 | 84 | 1020.1 |
| 20260902204149 | 18 | 315 | 6.4 | 9.7 | 0.00 | 0.03 | 0.03 | 83 | 1020.2 |
| 20260902203534 | 18 | 309 | 6.4 | 11.3 | 0.00 | 0.03 | 0.03 | 84 | 1020.1 |
| 20260902202535 | 18 | 306 | 9.7 | 17.7 | 0.00 | 0.03 | 0.03 | 84 | 1020.1 |
| 20260902201148 | 18 | 274 | 11.3 | 17.7 | 0.00 | 0.03 | 0.03 | 84 | 1020.2 |
| 20260902200535 | 18 | 291 | 6.4 | 14.5 | 0.00 | 0.03 | 0.03 | 85 | 1019.9 |
| 20260902195535 | 19 | 357 | 4.8 | 11.3 | 0.00 | 0.03 | 0.03 | 84 | 1019.7 |
| 20260902194148 | 19 | 338 | 8.0 | 12.9 | 0.00 | 0.03 | 0.03 | 84 | 1019.8 |
| 20260902193535 | 20 | 336 | 8.0 | 14.5 | 0.00 | 0.03 | 0.03 | 83 | 1019.9 |
| 20260902192534 | 20 | 346 | 6.4 | 11.3 | 0.03 | 0.03 | 0.03 | 86 | 1019.8 |
| 20260902191148 | 20 | 213 | 8.0 | 14.5 | 0.03 | 0.03 | 0.03 | 85 | 1019.8 |
| 20260902190534 | 19 | 4 | 1.6 | 14.5 | 0.03 | 0.03 | 0.03 | 89 | 1019.6 |
| 20260902185535 | 20 | 338 | 9.7 | 12.9 | 0.03 | 0.03 | 0.03 | 85 | 1019.0 |
| 20260902184148 | 20 | 317 | 9.7 | 17.7 | 0.03 | 0.03 | 0.03 | 84 | 1019.1 |
| 20260902183535 | 20 | 358 | 3.2 | 9.7 | 0.03 | 0.03 | 0.03 | 83 | 1018.8 |
| 20260902182535 | 21 | 335 | 3.2 | 8.0 | 0.03 | 0.03 | 0.03 | 81 | 1018.8 |
| 20260902181148 | 21 | 314 | 8.0 | 9.7 | 0.00 | 0.00 | 0.00 | 77 | 1018.7 |
| 20260902180535 | 22 | 337 | 3.2 | 9.7 | 0.00 | 0.00 | 0.00 | 74 | 1018.4 |
| 20260902175535 | 22 | 353 | 3.2 | 8.0 | 0.00 | 0.00 | 0.00 | 73 | 1018.2 |
| 20260902174148 | 22 | 353 | 3.2 | 6.4 | 0.00 | 0.00 | 0.00 | 68 | 1018.1 |
| 20260902173534 | 22 | 19 | 3.2 | 4.8 | 0.00 | 0.00 | 0.00 | 68 | 1017.7 |
| 20260902172535 | 23 | 35 | 1.6 | 4.8 | 0.00 | 0.00 | 0.00 | 60 | 1017.6 |
| 20260902171148 | 23 | 70 | 3.2 | 6.4 | 0.00 | 0.00 | 0.00 | 59 | 1017.5 |
| 20260902170535 | 23 | 95 | 4.8 | 8.0 | 0.00 | 0.00 | 0.00 | 58 | 1017.5 |
| 20260902165535 | 23 | 106 | 6.4 | 9.7 | 0.00 | 0.00 | 0.00 | 60 | 1017.4 |
| 20260902164148 | 23 | 148 | 4.8 | 11.3 | 0.00 | 0.00 | 0.00 | 58 | 1017.5 |
| 20260902163535 | 24 | 151 | 4.8 | 11.3 | 0.00 | 0.00 | 0.00 | 58 | 1017.4 |
| 20260902162535 | 24 | 118 | 6.4 | 11.3 | 0.00 | 0.00 | 0.00 | 56 | 1017.2 |
| 20260902161148 | 24 | 144 | 8.0 | 16.1 | 0.00 | 0.00 | 0.00 | 58 | 1017.2 |
| 20260902160534 | 24 | 119 | 6.4 | 12.9 | 0.00 | 0.00 | 0.00 | 59 | 1017.4 |
| 20260902155535 | 24 | 134 | 4.8 | 9.7 | 0.00 | 0.00 | 0.00 | 57 | 1017.4 |
| 20260902154148 | 24 | 103 | 3.2 | 11.3 | 0.00 | 0.00 | 0.00 | 56 | 1017.3 |
| 20260902153535 | 25 | 117 | 4.8 | 11.3 | 0.00 | 0.00 | 0.00 | 57 | 1017.4 |
| 20260902152534 | 24 | 128 | 4.8 | 11.3 | 0.00 | 0.00 | 0.00 | 58 | 1017.5 |
| 20260902151148 | 24 | 103 | 3.2 | 9.7 | 0.00 | 0.00 | 0.00 | 58 | 1017.4 |
| 20260902150535 | 24 | 120 | 6.4 | 11.3 | 0.00 | 0.00 | 0.00 | 56 | 1017.4 |
| 20260902145535 | 24 | 50 | 0.0 | 9.7 | 0.00 | 0.00 | 0.00 | 57 | 1017.5 |
| 20260902144148 | 24 | 98 | 4.8 | 11.3 | 0.00 | 0.00 | 0.00 | 55 | 1017.4 |
| 20260902143534 | 24 | 47 | 4.8 | 9.7 | 0.00 | 0.00 | 0.00 | 54 | 1017.6 |
| 20260902142535 | 24 | 83 | 3.2 | 9.7 | 0.00 | 0.00 | 0.00 | 55 | 1017.7 |
| 20260902141148 | 24 | 166 | 6.4 | 14.5 | 0.00 | 0.00 | 0.00 | 54 | 1017.8 |
| 20260902140535 | 24 | 152 | 3.2 | 12.9 | 0.00 | 0.00 | 0.00 | 54 | 1017.8 |
| 20260902135535 | 25 | 73 | 1.6 | 9.7 | 0.00 | 0.00 | 0.00 | 54 | 1017.8 |
| 20260902134147 | 24 | 181 | 6.4 | 12.9 | 0.00 | 0.00 | 0.00 | 54 | 1018.1 |
| 20260902133535 | 24 | 155 | 6.4 | 12.9 | 0.00 | 0.00 | 0.00 | 55 | 1018.2 |
| 20260902132535 | 24 | 167 | 3.2 | 9.7 | 0.00 | 0.00 | 0.00 | 55 | 1018.5 |
| 20260902131148 | 23 | 198 | 3.2 | 12.9 | 0.00 | 0.00 | 0.00 | 57 | 1018.6 |
| 20260902130535 | 23 | 146 | 4.8 | 11.3 | 0.00 | 0.00 | 0.00 | 56 | 1018.9 |
| 20260902125535 | 23 | 137 | 3.2 | 11.3 | 0.00 | 0.00 | 0.00 | 58 | 1018.9 |
| 20260902124147 | 23 | 158 | 4.8 | 12.9 | 0.00 | 0.00 | 0.00 | 60 | 1019.0 |
| 20260902123535 | 23 | 157 | 8.0 | 14.5 | 0.00 | 0.00 | 0.00 | 59 | 1019.2 |
| 20260902122535 | 23 | 169 | 3.2 | 8.0 | 0.00 | 0.00 | 0.00 | 60 | 1019.6 |
| 20260902121148 | 23 | 182 | 6.4 | 12.9 | 0.00 | 0.00 | 0.00 | 60 | 1019.7 |
| 20260902120534 | 23 | 360 | 0.0 | 9.7 | 0.00 | 0.00 | 0.00 | 62 | 1019.7 |
| 20260902115534 | 22 | 118 | 3.2 | 11.3 | 0.00 | 0.00 | 0.00 | 62 | 1020.1 |
| 20260902114148 | 22 | 122 | 4.8 | 11.3 | 0.00 | 0.00 | 0.00 | 61 | 1020.3 |
| 20260902113535 | 22 | 113 | 3.2 | 9.7 | 0.00 | 0.00 | 0.00 | 62 | 1020.5 |
| 20260902112535 | 22 | 169 | 3.2 | 12.9 | 0.00 | 0.00 | 0.00 | 62 | 1020.6 |